sensor_id;sensor_type;location;lat;lon;timestamp;P1;durP1;ratioP1;P2;durP2;ratioP2
52322;SDS011;38263;52.920;6.238;2023-06-24T00:02:06;8.35;;;5.18;;
52322;SDS011;38263;52.920;6.238;2023-06-24T00:04:32;6.95;;;5.82;;
52322;SDS011;38263;52.920;6.238;2023-06-24T00:06:58;6.60;;;5.65;;
52322;SDS011;38263;52.920;6.238;2023-06-24T00:09:27;9.18;;;5.07;;
52322;SDS011;38263;52.920;6.238;2023-06-24T00:11:54;5.22;;;4.47;;
52322;SDS011;38263;52.920;6.238;2023-06-24T00:14:20;7.97;;;5.30;;
52322;SDS011;38263;52.920;6.238;2023-06-24T00:16:48;6.30;;;5.25;;
52322;SDS011;38263;52.920;6.238;2023-06-24T00:19:21;5.97;;;5.13;;
52322;SDS011;38263;52.920;6.238;2023-06-24T00:21:48;6.88;;;5.15;;
52322;SDS011;38263;52.920;6.238;2023-06-24T00:24:16;7.35;;;5.57;;
52322;SDS011;38263;52.920;6.238;2023-06-24T00:26:42;7.75;;;5.75;;
52322;SDS011;38263;52.920;6.238;2023-06-24T00:29:08;9.45;;;5.53;;
52322;SDS011;38263;52.920;6.238;2023-06-24T00:31:34;8.38;;;5.63;;
52322;SDS011;38263;52.920;6.238;2023-06-24T00:34:00;9.00;;;5.63;;
52322;SDS011;38263;52.920;6.238;2023-06-24T00:36:26;8.13;;;5.45;;
52322;SDS011;38263;52.920;6.238;2023-06-24T00:38:52;6.22;;;5.57;;
52322;SDS011;38263;52.920;6.238;2023-06-24T00:41:18;6.63;;;5.68;;
52322;SDS011;38263;52.920;6.238;2023-06-24T00:43:44;7.05;;;5.95;;
52322;SDS011;38263;52.920;6.238;2023-06-24T00:46:10;7.95;;;5.60;;
52322;SDS011;38263;52.920;6.238;2023-06-24T00:48:37;7.15;;;4.80;;
52322;SDS011;38263;52.920;6.238;2023-06-24T00:51:03;8.30;;;5.63;;
52322;SDS011;38263;52.920;6.238;2023-06-24T00:53:29;7.90;;;5.82;;
52322;SDS011;38263;52.920;6.238;2023-06-24T00:55:55;10.00;;;6.65;;
52322;SDS011;38263;52.920;6.238;2023-06-24T00:58:26;7.18;;;6.22;;
52322;SDS011;38263;52.920;6.238;2023-06-24T01:00:55;7.97;;;5.55;;
52322;SDS011;38263;52.920;6.238;2023-06-24T01:03:26;11.38;;;6.40;;
52322;SDS011;38263;52.920;6.238;2023-06-24T01:05:53;8.35;;;5.72;;
52322;SDS011;38263;52.920;6.238;2023-06-24T01:08:20;7.35;;;6.03;;
52322;SDS011;38263;52.920;6.238;2023-06-24T01:10:47;8.40;;;5.82;;
52322;SDS011;38263;52.920;6.238;2023-06-24T01:13:14;11.90;;;6.25;;
52322;SDS011;38263;52.920;6.238;2023-06-24T01:15:40;6.32;;;5.25;;
52322;SDS011;38263;52.920;6.238;2023-06-24T01:20:59;7.90;;;5.78;;
52322;SDS011;38263;52.920;6.238;2023-06-24T01:26:52;6.72;;;6.00;;
52322;SDS011;38263;52.920;6.238;2023-06-24T01:29:40;6.70;;;5.88;;
52322;SDS011;38263;52.920;6.238;2023-06-24T01:32:22;7.10;;;5.38;;
52322;SDS011;38263;52.920;6.238;2023-06-24T01:34:50;7.32;;;6.47;;
52322;SDS011;38263;52.920;6.238;2023-06-24T01:37:21;9.40;;;6.45;;
52322;SDS011;38263;52.920;6.238;2023-06-24T01:40:15;8.95;;;6.00;;
52322;SDS011;38263;52.920;6.238;2023-06-24T01:42:43;9.13;;;6.65;;
52322;SDS011;38263;52.920;6.238;2023-06-24T01:45:21;9.80;;;6.65;;
52322;SDS011;38263;52.920;6.238;2023-06-24T01:47:57;11.98;;;7.93;;
52322;SDS011;38263;52.920;6.238;2023-06-24T01:50:27;8.98;;;7.18;;
52322;SDS011;38263;52.920;6.238;2023-06-24T01:52:56;11.45;;;7.75;;
52322;SDS011;38263;52.920;6.238;2023-06-24T01:55:23;12.38;;;7.78;;
52322;SDS011;38263;52.920;6.238;2023-06-24T01:57:51;14.32;;;8.48;;
52322;SDS011;38263;52.920;6.238;2023-06-24T02:00:19;10.23;;;8.43;;
52322;SDS011;38263;52.920;6.238;2023-06-24T02:02:47;14.18;;;8.90;;
52322;SDS011;38263;52.920;6.238;2023-06-24T02:05:14;13.63;;;10.25;;
52322;SDS011;38263;52.920;6.238;2023-06-24T02:07:42;15.13;;;9.70;;
52322;SDS011;38263;52.920;6.238;2023-06-24T02:10:09;14.18;;;9.95;;
52322;SDS011;38263;52.920;6.238;2023-06-24T02:12:37;10.93;;;8.77;;
52322;SDS011;38263;52.920;6.238;2023-06-24T02:15:04;13.75;;;9.98;;
52322;SDS011;38263;52.920;6.238;2023-06-24T02:17:32;15.05;;;9.18;;
52322;SDS011;38263;52.920;6.238;2023-06-24T02:19:58;17.40;;;10.18;;
52322;SDS011;38263;52.920;6.238;2023-06-24T02:22:25;14.07;;;9.27;;
52322;SDS011;38263;52.920;6.238;2023-06-24T02:24:50;14.50;;;9.68;;
52322;SDS011;38263;52.920;6.238;2023-06-24T02:27:17;12.23;;;10.48;;
52322;SDS011;38263;52.920;6.238;2023-06-24T02:29:44;13.90;;;9.88;;
52322;SDS011;38263;52.920;6.238;2023-06-24T02:32:11;13.32;;;9.80;;
52322;SDS011;38263;52.920;6.238;2023-06-24T02:34:37;14.32;;;10.23;;
52322;SDS011;38263;52.920;6.238;2023-06-24T02:37:03;14.63;;;9.77;;
52322;SDS011;38263;52.920;6.238;2023-06-24T02:39:29;11.60;;;9.60;;
52322;SDS011;38263;52.920;6.238;2023-06-24T02:41:55;14.23;;;10.68;;
52322;SDS011;38263;52.920;6.238;2023-06-24T02:44:21;14.63;;;9.80;;
52322;SDS011;38263;52.920;6.238;2023-06-24T02:46:47;13.40;;;9.75;;
52322;SDS011;38263;52.920;6.238;2023-06-24T02:49:15;12.05;;;9.63;;
52322;SDS011;38263;52.920;6.238;2023-06-24T02:51:43;39.13;;;12.48;;
52322;SDS011;38263;52.920;6.238;2023-06-24T02:54:12;13.10;;;9.20;;
52322;SDS011;38263;52.920;6.238;2023-06-24T02:56:39;15.63;;;10.30;;
52322;SDS011;38263;52.920;6.238;2023-06-24T02:59:07;15.70;;;10.02;;
52322;SDS011;38263;52.920;6.238;2023-06-24T03:01:33;13.18;;;9.80;;
52322;SDS011;38263;52.920;6.238;2023-06-24T03:04:03;14.15;;;10.30;;
52322;SDS011;38263;52.920;6.238;2023-06-24T03:10:07;16.77;;;11.73;;
52322;SDS011;38263;52.920;6.238;2023-06-24T03:12:35;12.63;;;10.02;;
52322;SDS011;38263;52.920;6.238;2023-06-24T03:15:01;14.25;;;10.50;;
52322;SDS011;38263;52.920;6.238;2023-06-24T03:17:27;17.02;;;11.30;;
52322;SDS011;38263;52.920;6.238;2023-06-24T03:19:52;14.23;;;11.00;;
52322;SDS011;38263;52.920;6.238;2023-06-24T03:22:18;16.77;;;11.13;;
52322;SDS011;38263;52.920;6.238;2023-06-24T03:24:44;16.85;;;11.90;;
52322;SDS011;38263;52.920;6.238;2023-06-24T03:27:10;17.08;;;11.60;;
52322;SDS011;38263;52.920;6.238;2023-06-24T03:29:37;16.33;;;11.98;;
52322;SDS011;38263;52.920;6.238;2023-06-24T03:32:03;18.85;;;11.57;;
52322;SDS011;38263;52.920;6.238;2023-06-24T03:34:29;19.65;;;12.50;;
52322;SDS011;38263;52.920;6.238;2023-06-24T03:36:55;17.55;;;11.77;;
52322;SDS011;38263;52.920;6.238;2023-06-24T03:39:21;18.00;;;11.52;;
52322;SDS011;38263;52.920;6.238;2023-06-24T03:41:47;17.40;;;11.40;;
52322;SDS011;38263;52.920;6.238;2023-06-24T03:44:13;18.13;;;12.57;;
52322;SDS011;38263;52.920;6.238;2023-06-24T03:46:39;20.83;;;13.05;;
52322;SDS011;38263;52.920;6.238;2023-06-24T03:49:05;19.20;;;12.93;;
52322;SDS011;38263;52.920;6.238;2023-06-24T03:51:31;18.67;;;12.75;;
52322;SDS011;38263;52.920;6.238;2023-06-24T03:53:57;18.98;;;13.18;;
52322;SDS011;38263;52.920;6.238;2023-06-24T03:56:23;18.50;;;13.10;;
52322;SDS011;38263;52.920;6.238;2023-06-24T03:58:49;19.70;;;13.20;;
52322;SDS011;38263;52.920;6.238;2023-06-24T04:01:14;16.65;;;13.05;;
52322;SDS011;38263;52.920;6.238;2023-06-24T04:03:44;20.00;;;13.68;;
52322;SDS011;38263;52.920;6.238;2023-06-24T04:06:10;18.35;;;13.40;;
52322;SDS011;38263;52.920;6.238;2023-06-24T04:08:36;20.02;;;13.68;;
52322;SDS011;38263;52.920;6.238;2023-06-24T04:11:05;19.30;;;12.38;;
52322;SDS011;38263;52.920;6.238;2023-06-24T04:13:35;19.20;;;13.32;;
52322;SDS011;38263;52.920;6.238;2023-06-24T04:16:00;21.42;;;15.25;;
52322;SDS011;38263;52.920;6.238;2023-06-24T04:18:27;21.48;;;13.73;;
52322;SDS011;38263;52.920;6.238;2023-06-24T04:20:53;19.13;;;13.05;;
52322;SDS011;38263;52.920;6.238;2023-06-24T04:23:18;20.77;;;14.80;;
52322;SDS011;38263;52.920;6.238;2023-06-24T04:25:44;21.27;;;13.48;;
52322;SDS011;38263;52.920;6.238;2023-06-24T04:28:10;23.92;;;14.48;;
52322;SDS011;38263;52.920;6.238;2023-06-24T04:30:36;19.27;;;14.05;;
52322;SDS011;38263;52.920;6.238;2023-06-24T04:33:05;21.90;;;13.43;;
52322;SDS011;38263;52.920;6.238;2023-06-24T04:35:31;19.17;;;13.80;;
52322;SDS011;38263;52.920;6.238;2023-06-24T04:37:57;21.05;;;13.70;;
52322;SDS011;38263;52.920;6.238;2023-06-24T04:40:23;19.25;;;13.65;;
52322;SDS011;38263;52.920;6.238;2023-06-24T04:42:49;23.30;;;14.13;;
52322;SDS011;38263;52.920;6.238;2023-06-24T04:45:15;19.58;;;15.15;;
52322;SDS011;38263;52.920;6.238;2023-06-24T04:47:41;17.13;;;12.77;;
52322;SDS011;38263;52.920;6.238;2023-06-24T04:50:07;20.05;;;13.80;;
52322;SDS011;38263;52.920;6.238;2023-06-24T04:52:36;17.92;;;13.20;;
52322;SDS011;38263;52.920;6.238;2023-06-24T04:55:02;19.08;;;12.95;;
52322;SDS011;38263;52.920;6.238;2023-06-24T04:57:29;18.35;;;12.80;;
52322;SDS011;38263;52.920;6.238;2023-06-24T04:59:56;17.25;;;14.05;;
52322;SDS011;38263;52.920;6.238;2023-06-24T05:02:22;18.27;;;12.30;;
52322;SDS011;38263;52.920;6.238;2023-06-24T05:04:48;18.85;;;12.32;;
52322;SDS011;38263;52.920;6.238;2023-06-24T05:07:14;17.73;;;12.15;;
52322;SDS011;38263;52.920;6.238;2023-06-24T05:09:40;13.95;;;10.55;;
52322;SDS011;38263;52.920;6.238;2023-06-24T05:15:47;14.18;;;10.95;;
52322;SDS011;38263;52.920;6.238;2023-06-24T05:18:13;14.75;;;10.05;;
52322;SDS011;38263;52.920;6.238;2023-06-24T05:20:39;16.77;;;10.77;;
52322;SDS011;38263;52.920;6.238;2023-06-24T05:23:05;16.75;;;11.48;;
52322;SDS011;38263;52.920;6.238;2023-06-24T05:25:31;15.40;;;10.75;;
52322;SDS011;38263;52.920;6.238;2023-06-24T05:27:57;14.68;;;10.57;;
52322;SDS011;38263;52.920;6.238;2023-06-24T05:30:23;14.00;;;10.30;;
52322;SDS011;38263;52.920;6.238;2023-06-24T05:32:48;13.00;;;9.35;;
52322;SDS011;38263;52.920;6.238;2023-06-24T05:35:14;15.55;;;9.70;;
52322;SDS011;38263;52.920;6.238;2023-06-24T05:37:40;13.63;;;9.93;;
52322;SDS011;38263;52.920;6.238;2023-06-24T05:40:06;13.82;;;10.18;;
52322;SDS011;38263;52.920;6.238;2023-06-24T05:42:32;11.18;;;9.38;;
52322;SDS011;38263;52.920;6.238;2023-06-24T05:44:59;11.77;;;9.25;;
52322;SDS011;38263;52.920;6.238;2023-06-24T05:47:24;13.00;;;10.45;;
52322;SDS011;38263;52.920;6.238;2023-06-24T05:49:50;14.52;;;9.57;;
52322;SDS011;38263;52.920;6.238;2023-06-24T05:52:15;15.10;;;10.32;;
52322;SDS011;38263;52.920;6.238;2023-06-24T05:54:41;13.38;;;9.27;;
52322;SDS011;38263;52.920;6.238;2023-06-24T05:57:06;14.00;;;9.27;;
52322;SDS011;38263;52.920;6.238;2023-06-24T05:59:33;13.57;;;9.05;;
52322;SDS011;38263;52.920;6.238;2023-06-24T06:01:58;9.98;;;8.90;;
52322;SDS011;38263;52.920;6.238;2023-06-24T06:04:26;11.27;;;9.43;;
52322;SDS011;38263;52.920;6.238;2023-06-24T06:06:52;13.70;;;9.13;;
52322;SDS011;38263;52.920;6.238;2023-06-24T06:09:18;12.35;;;9.40;;
52322;SDS011;38263;52.920;6.238;2023-06-24T06:11:43;12.45;;;9.43;;
52322;SDS011;38263;52.920;6.238;2023-06-24T06:14:09;13.52;;;10.00;;
52322;SDS011;38263;52.920;6.238;2023-06-24T06:16:35;13.65;;;9.75;;
52322;SDS011;38263;52.920;6.238;2023-06-24T06:19:00;11.32;;;9.45;;
52322;SDS011;38263;52.920;6.238;2023-06-24T06:21:26;14.07;;;8.90;;
52322;SDS011;38263;52.920;6.238;2023-06-24T06:23:51;15.68;;;8.20;;
52322;SDS011;38263;52.920;6.238;2023-06-24T06:26:17;9.30;;;7.93;;
52322;SDS011;38263;52.920;6.238;2023-06-24T06:28:43;12.82;;;8.73;;
52322;SDS011;38263;52.920;6.238;2023-06-24T06:31:08;9.30;;;6.90;;
52322;SDS011;38263;52.920;6.238;2023-06-24T06:33:34;9.05;;;6.07;;
52322;SDS011;38263;52.920;6.238;2023-06-24T06:35:59;10.95;;;5.85;;
52322;SDS011;38263;52.920;6.238;2023-06-24T06:38:25;11.38;;;6.43;;
52322;SDS011;38263;52.920;6.238;2023-06-24T06:40:51;10.15;;;6.43;;
52322;SDS011;38263;52.920;6.238;2023-06-24T06:43:17;9.50;;;5.75;;
52322;SDS011;38263;52.920;6.238;2023-06-24T06:45:43;9.95;;;7.22;;
52322;SDS011;38263;52.920;6.238;2023-06-24T06:48:19;11.68;;;6.47;;
52322;SDS011;38263;52.920;6.238;2023-06-24T06:50:46;9.55;;;7.28;;
52322;SDS011;38263;52.920;6.238;2023-06-24T06:53:59;9.80;;;7.32;;
52322;SDS011;38263;52.920;6.238;2023-06-24T06:56:25;12.48;;;8.13;;
52322;SDS011;38263;52.920;6.238;2023-06-24T06:58:51;13.85;;;8.40;;
52322;SDS011;38263;52.920;6.238;2023-06-24T07:01:17;11.52;;;9.07;;
52322;SDS011;38263;52.920;6.238;2023-06-24T07:03:43;10.85;;;8.43;;
52322;SDS011;38263;52.920;6.238;2023-06-24T07:06:09;10.98;;;8.30;;
52322;SDS011;38263;52.920;6.238;2023-06-24T07:08:35;11.70;;;9.23;;
52322;SDS011;38263;52.920;6.238;2023-06-24T07:11:01;11.13;;;8.77;;
52322;SDS011;38263;52.920;6.238;2023-06-24T07:13:27;11.68;;;9.02;;
52322;SDS011;38263;52.920;6.238;2023-06-24T07:15:53;14.27;;;9.23;;
52322;SDS011;38263;52.920;6.238;2023-06-24T07:18:19;14.05;;;8.38;;
52322;SDS011;38263;52.920;6.238;2023-06-24T07:20:45;12.55;;;8.07;;
52322;SDS011;38263;52.920;6.238;2023-06-24T07:23:10;12.82;;;8.02;;
52322;SDS011;38263;52.920;6.238;2023-06-24T07:25:36;9.35;;;7.40;;
52322;SDS011;38263;52.920;6.238;2023-06-24T07:28:02;12.40;;;7.10;;
52322;SDS011;38263;52.920;6.238;2023-06-24T07:30:28;9.38;;;6.85;;
52322;SDS011;38263;52.920;6.238;2023-06-24T07:32:54;10.07;;;7.28;;
52322;SDS011;38263;52.920;6.238;2023-06-24T07:35:20;8.30;;;6.10;;
52322;SDS011;38263;52.920;6.238;2023-06-24T07:37:45;8.57;;;5.72;;
52322;SDS011;38263;52.920;6.238;2023-06-24T07:40:11;8.32;;;4.60;;
52322;SDS011;38263;52.920;6.238;2023-06-24T07:42:37;4.70;;;3.55;;
52322;SDS011;38263;52.920;6.238;2023-06-24T07:45:02;8.38;;;4.65;;
52322;SDS011;38263;52.920;6.238;2023-06-24T07:47:28;5.57;;;4.50;;
52322;SDS011;38263;52.920;6.238;2023-06-24T07:49:54;5.57;;;3.90;;
52322;SDS011;38263;52.920;6.238;2023-06-24T07:52:19;7.07;;;3.95;;
52322;SDS011;38263;52.920;6.238;2023-06-24T07:54:45;4.90;;;2.72;;
52322;SDS011;38263;52.920;6.238;2023-06-24T07:57:11;8.93;;;2.42;;
52322;SDS011;38263;52.920;6.238;2023-06-24T07:59:37;4.03;;;2.30;;
52322;SDS011;38263;52.920;6.238;2023-06-24T08:02:02;3.97;;;2.75;;
52322;SDS011;38263;52.920;6.238;2023-06-24T08:04:28;4.85;;;2.63;;
52322;SDS011;38263;52.920;6.238;2023-06-24T08:06:54;4.25;;;2.33;;
52322;SDS011;38263;52.920;6.238;2023-06-24T08:09:19;4.43;;;2.72;;
52322;SDS011;38263;52.920;6.238;2023-06-24T08:11:45;4.20;;;2.47;;
52322;SDS011;38263;52.920;6.238;2023-06-24T08:14:10;5.75;;;2.58;;
52322;SDS011;38263;52.920;6.238;2023-06-24T08:16:37;4.60;;;2.63;;
52322;SDS011;38263;52.920;6.238;2023-06-24T08:19:02;4.32;;;2.20;;
52322;SDS011;38263;52.920;6.238;2023-06-24T08:21:28;4.93;;;3.17;;
52322;SDS011;38263;52.920;6.238;2023-06-24T08:23:54;6.28;;;3.08;;
52322;SDS011;38263;52.920;6.238;2023-06-24T08:26:20;3.95;;;2.45;;
52322;SDS011;38263;52.920;6.238;2023-06-24T08:28:46;5.88;;;3.05;;
52322;SDS011;38263;52.920;6.238;2023-06-24T08:31:12;5.70;;;2.90;;
52322;SDS011;38263;52.920;6.238;2023-06-24T08:33:38;6.53;;;3.33;;
52322;SDS011;38263;52.920;6.238;2023-06-24T08:36:03;3.58;;;2.75;;
52322;SDS011;38263;52.920;6.238;2023-06-24T08:38:29;8.93;;;3.65;;
52322;SDS011;38263;52.920;6.238;2023-06-24T08:40:55;5.20;;;2.85;;
52322;SDS011;38263;52.920;6.238;2023-06-24T08:43:21;6.05;;;3.25;;
52322;SDS011;38263;52.920;6.238;2023-06-24T08:45:46;5.20;;;2.75;;
52322;SDS011;38263;52.920;6.238;2023-06-24T08:48:12;4.28;;;2.90;;
52322;SDS011;38263;52.920;6.238;2023-06-24T08:50:46;6.90;;;2.85;;
52322;SDS011;38263;52.920;6.238;2023-06-24T08:53:17;5.00;;;3.13;;
52322;SDS011;38263;52.920;6.238;2023-06-24T08:55:45;6.10;;;2.40;;
52322;SDS011;38263;52.920;6.238;2023-06-24T08:58:12;5.05;;;2.75;;
52322;SDS011;38263;52.920;6.238;2023-06-24T09:00:38;5.70;;;2.88;;
52322;SDS011;38263;52.920;6.238;2023-06-24T09:03:04;4.70;;;2.92;;
52322;SDS011;38263;52.920;6.238;2023-06-24T09:05:30;3.72;;;2.90;;
52322;SDS011;38263;52.920;6.238;2023-06-24T09:07:55;10.43;;;4.25;;
52322;SDS011;38263;52.920;6.238;2023-06-24T09:10:37;7.80;;;3.22;;
52322;SDS011;38263;52.920;6.238;2023-06-24T09:13:03;10.45;;;3.85;;
52322;SDS011;38263;52.920;6.238;2023-06-24T09:15:37;8.25;;;3.40;;
52322;SDS011;38263;52.920;6.238;2023-06-24T09:18:03;6.53;;;3.92;;
52322;SDS011;38263;52.920;6.238;2023-06-24T09:20:30;7.80;;;4.57;;
52322;SDS011;38263;52.920;6.238;2023-06-24T09:23:04;6.10;;;3.28;;
52322;SDS011;38263;52.920;6.238;2023-06-24T09:25:30;7.30;;;4.30;;
52322;SDS011;38263;52.920;6.238;2023-06-24T09:27:59;7.05;;;4.45;;
52322;SDS011;38263;52.920;6.238;2023-06-24T09:30:26;8.38;;;4.35;;
52322;SDS011;38263;52.920;6.238;2023-06-24T09:32:52;6.75;;;3.70;;
52322;SDS011;38263;52.920;6.238;2023-06-24T09:35:19;5.25;;;3.63;;
52322;SDS011;38263;52.920;6.238;2023-06-24T09:37:49;6.00;;;3.72;;
52322;SDS011;38263;52.920;6.238;2023-06-24T09:40:16;6.82;;;3.20;;
52322;SDS011;38263;52.920;6.238;2023-06-24T09:42:51;6.47;;;3.85;;
52322;SDS011;38263;52.920;6.238;2023-06-24T09:45:19;7.30;;;4.20;;
52322;SDS011;38263;52.920;6.238;2023-06-24T09:47:49;5.88;;;3.72;;
52322;SDS011;38263;52.920;6.238;2023-06-24T09:50:15;6.55;;;3.97;;
52322;SDS011;38263;52.920;6.238;2023-06-24T09:52:41;9.80;;;4.35;;
52322;SDS011;38263;52.920;6.238;2023-06-24T09:55:09;7.72;;;4.60;;
52322;SDS011;38263;52.920;6.238;2023-06-24T09:57:36;6.25;;;3.85;;
52322;SDS011;38263;52.920;6.238;2023-06-24T10:00:03;6.00;;;3.53;;
52322;SDS011;38263;52.920;6.238;2023-06-24T10:02:29;5.57;;;4.18;;
52322;SDS011;38263;52.920;6.238;2023-06-24T10:04:56;6.47;;;4.00;;
52322;SDS011;38263;52.920;6.238;2023-06-24T10:07:23;7.47;;;4.20;;
52322;SDS011;38263;52.920;6.238;2023-06-24T10:09:49;5.93;;;3.95;;
52322;SDS011;38263;52.920;6.238;2023-06-24T10:12:14;5.43;;;3.72;;
52322;SDS011;38263;52.920;6.238;2023-06-24T10:14:40;7.50;;;3.63;;
52322;SDS011;38263;52.920;6.238;2023-06-24T10:17:05;5.85;;;4.22;;
52322;SDS011;38263;52.920;6.238;2023-06-24T10:19:37;6.90;;;3.58;;
52322;SDS011;38263;52.920;6.238;2023-06-24T10:22:04;5.55;;;3.75;;
52322;SDS011;38263;52.920;6.238;2023-06-24T10:24:34;4.95;;;3.85;;
52322;SDS011;38263;52.920;6.238;2023-06-24T10:29:37;4.38;;;3.15;;
52322;SDS011;38263;52.920;6.238;2023-06-24T10:32:04;5.05;;;3.47;;
52322;SDS011;38263;52.920;6.238;2023-06-24T10:34:34;4.90;;;2.97;;
52322;SDS011;38263;52.920;6.238;2023-06-24T10:37:13;8.15;;;4.28;;
52322;SDS011;38263;52.920;6.238;2023-06-24T10:42:37;4.68;;;3.17;;
52322;SDS011;38263;52.920;6.238;2023-06-24T10:47:38;7.65;;;3.22;;
52322;SDS011;38263;52.920;6.238;2023-06-24T10:50:08;5.22;;;3.80;;
52322;SDS011;38263;52.920;6.238;2023-06-24T10:52:44;7.05;;;3.10;;
52322;SDS011;38263;52.920;6.238;2023-06-24T10:55:15;6.72;;;3.15;;
52322;SDS011;38263;52.920;6.238;2023-06-24T10:57:42;6.28;;;2.90;;
52322;SDS011;38263;52.920;6.238;2023-06-24T11:00:08;7.57;;;3.40;;
52322;SDS011;38263;52.920;6.238;2023-06-24T11:02:34;7.32;;;3.67;;
52322;SDS011;38263;52.920;6.238;2023-06-24T11:05:02;5.57;;;3.35;;
52322;SDS011;38263;52.920;6.238;2023-06-24T11:07:30;5.72;;;3.13;;
52322;SDS011;38263;52.920;6.238;2023-06-24T11:10:01;7.00;;;3.17;;
52322;SDS011;38263;52.920;6.238;2023-06-24T11:12:33;5.47;;;3.35;;
52322;SDS011;38263;52.920;6.238;2023-06-24T11:15:03;4.38;;;2.53;;
52322;SDS011;38263;52.920;6.238;2023-06-24T11:17:32;6.25;;;2.47;;
52322;SDS011;38263;52.920;6.238;2023-06-24T11:19:58;6.57;;;2.75;;
52322;SDS011;38263;52.920;6.238;2023-06-24T11:22:24;6.55;;;3.50;;
52322;SDS011;38263;52.920;6.238;2023-06-24T11:24:51;4.22;;;2.78;;
52322;SDS011;38263;52.920;6.238;2023-06-24T11:27:27;8.75;;;3.80;;
52322;SDS011;38263;52.920;6.238;2023-06-24T11:29:55;5.03;;;3.45;;
52322;SDS011;38263;52.920;6.238;2023-06-24T11:32:37;8.38;;;3.13;;
52322;SDS011;38263;52.920;6.238;2023-06-24T11:35:07;5.95;;;2.90;;
52322;SDS011;38263;52.920;6.238;2023-06-24T11:37:34;5.43;;;3.17;;
52322;SDS011;38263;52.920;6.238;2023-06-24T11:40:09;4.82;;;2.45;;
52322;SDS011;38263;52.920;6.238;2023-06-24T11:42:36;6.25;;;2.85;;
52322;SDS011;38263;52.920;6.238;2023-06-24T11:45:04;5.10;;;3.22;;
52322;SDS011;38263;52.920;6.238;2023-06-24T11:47:34;5.47;;;3.05;;
52322;SDS011;38263;52.920;6.238;2023-06-24T11:50:01;7.10;;;2.28;;
52322;SDS011;38263;52.920;6.238;2023-06-24T11:52:37;6.15;;;2.83;;
52322;SDS011;38263;52.920;6.238;2023-06-24T11:55:10;6.10;;;2.20;;
52322;SDS011;38263;52.920;6.238;2023-06-24T12:00:16;5.05;;;3.10;;
52322;SDS011;38263;52.920;6.238;2023-06-24T12:02:44;6.20;;;2.78;;
52322;SDS011;38263;52.920;6.238;2023-06-24T12:05:10;8.13;;;3.10;;
52322;SDS011;38263;52.920;6.238;2023-06-24T12:07:35;5.63;;;2.70;;
52322;SDS011;38263;52.920;6.238;2023-06-24T12:10:01;4.15;;;2.85;;
52322;SDS011;38263;52.920;6.238;2023-06-24T12:12:27;5.47;;;2.25;;
52322;SDS011;38263;52.920;6.238;2023-06-24T12:14:52;4.75;;;2.35;;
52322;SDS011;38263;52.920;6.238;2023-06-24T12:17:19;5.72;;;3.00;;
52322;SDS011;38263;52.920;6.238;2023-06-24T12:19:44;5.00;;;2.53;;
52322;SDS011;38263;52.920;6.238;2023-06-24T12:22:11;4.00;;;2.63;;
52322;SDS011;38263;52.920;6.238;2023-06-24T12:24:37;4.05;;;2.80;;
52322;SDS011;38263;52.920;6.238;2023-06-24T12:27:02;7.35;;;2.55;;
52322;SDS011;38263;52.920;6.238;2023-06-24T12:29:28;4.13;;;2.30;;
52322;SDS011;38263;52.920;6.238;2023-06-24T12:31:54;5.95;;;2.83;;
52322;SDS011;38263;52.920;6.238;2023-06-24T12:34:19;4.80;;;2.88;;
52322;SDS011;38263;52.920;6.238;2023-06-24T12:36:45;5.35;;;2.63;;
52322;SDS011;38263;52.920;6.238;2023-06-24T12:39:11;5.88;;;2.28;;
52322;SDS011;38263;52.920;6.238;2023-06-24T12:41:37;6.30;;;2.45;;
52322;SDS011;38263;52.920;6.238;2023-06-24T12:44:02;5.47;;;2.33;;
52322;SDS011;38263;52.920;6.238;2023-06-24T12:46:28;6.30;;;2.80;;
52322;SDS011;38263;52.920;6.238;2023-06-24T12:48:53;3.17;;;2.20;;
52322;SDS011;38263;52.920;6.238;2023-06-24T12:51:19;4.53;;;2.50;;
52322;SDS011;38263;52.920;6.238;2023-06-24T12:53:45;4.05;;;1.77;;
52322;SDS011;38263;52.920;6.238;2023-06-24T12:56:11;5.82;;;2.63;;
52322;SDS011;38263;52.920;6.238;2023-06-24T12:58:36;4.45;;;2.25;;
52322;SDS011;38263;52.920;6.238;2023-06-24T13:01:02;5.18;;;2.50;;
52322;SDS011;38263;52.920;6.238;2023-06-24T13:03:28;6.00;;;2.53;;
52322;SDS011;38263;52.920;6.238;2023-06-24T13:05:53;6.05;;;2.20;;
52322;SDS011;38263;52.920;6.238;2023-06-24T13:08:19;3.42;;;2.40;;
52322;SDS011;38263;52.920;6.238;2023-06-24T13:10:44;3.28;;;2.25;;
52322;SDS011;38263;52.920;6.238;2023-06-24T13:13:10;5.30;;;2.28;;
52322;SDS011;38263;52.920;6.238;2023-06-24T13:15:38;4.10;;;2.03;;
52322;SDS011;38263;52.920;6.238;2023-06-24T13:18:04;7.90;;;2.47;;
52322;SDS011;38263;52.920;6.238;2023-06-24T13:20:29;5.00;;;2.53;;
52322;SDS011;38263;52.920;6.238;2023-06-24T13:22:55;4.45;;;2.42;;
52322;SDS011;38263;52.920;6.238;2023-06-24T13:25:21;5.22;;;2.83;;
52322;SDS011;38263;52.920;6.238;2023-06-24T13:27:46;4.43;;;2.55;;
52322;SDS011;38263;52.920;6.238;2023-06-24T13:30:12;4.78;;;2.30;;
52322;SDS011;38263;52.920;6.238;2023-06-24T13:32:40;5.50;;;2.95;;
52322;SDS011;38263;52.920;6.238;2023-06-24T13:35:06;5.50;;;2.00;;
52322;SDS011;38263;52.920;6.238;2023-06-24T13:37:32;7.63;;;2.53;;
52322;SDS011;38263;52.920;6.238;2023-06-24T13:39:57;5.47;;;2.10;;
52322;SDS011;38263;52.920;6.238;2023-06-24T13:42:23;5.60;;;2.70;;
52322;SDS011;38263;52.920;6.238;2023-06-24T13:44:50;7.60;;;2.70;;
52322;SDS011;38263;52.920;6.238;2023-06-24T13:47:16;5.20;;;2.60;;
52322;SDS011;38263;52.920;6.238;2023-06-24T13:49:42;4.10;;;2.47;;
52322;SDS011;38263;52.920;6.238;2023-06-24T13:52:07;4.85;;;1.92;;
52322;SDS011;38263;52.920;6.238;2023-06-24T13:54:33;3.92;;;2.08;;
52322;SDS011;38263;52.920;6.238;2023-06-24T13:57:00;2.65;;;1.90;;
52322;SDS011;38263;52.920;6.238;2023-06-24T13:59:26;8.68;;;3.83;;
52322;SDS011;38263;52.920;6.238;2023-06-24T14:01:51;4.68;;;2.58;;
52322;SDS011;38263;52.920;6.238;2023-06-24T14:04:17;5.78;;;3.38;;
52322;SDS011;38263;52.920;6.238;2023-06-24T14:06:42;6.10;;;3.47;;
52322;SDS011;38263;52.920;6.238;2023-06-24T14:09:08;3.85;;;2.85;;
52322;SDS011;38263;52.920;6.238;2023-06-24T14:11:34;7.60;;;3.15;;
52322;SDS011;38263;52.920;6.238;2023-06-24T14:14:00;9.55;;;4.15;;
52322;SDS011;38263;52.920;6.238;2023-06-24T14:16:28;5.80;;;3.42;;
52322;SDS011;38263;52.920;6.238;2023-06-24T14:18:53;6.35;;;3.75;;
52322;SDS011;38263;52.920;6.238;2023-06-24T14:21:19;7.13;;;3.45;;
52322;SDS011;38263;52.920;6.238;2023-06-24T14:23:44;8.50;;;3.92;;
52322;SDS011;38263;52.920;6.238;2023-06-24T14:26:10;7.75;;;4.30;;
52322;SDS011;38263;52.920;6.238;2023-06-24T14:28:36;5.75;;;3.45;;
52322;SDS011;38263;52.920;6.238;2023-06-24T14:31:01;6.78;;;3.90;;
52322;SDS011;38263;52.920;6.238;2023-06-24T14:33:27;5.47;;;3.33;;
52322;SDS011;38263;52.920;6.238;2023-06-24T14:35:52;10.18;;;3.92;;
52322;SDS011;38263;52.920;6.238;2023-06-24T14:38:18;8.32;;;3.85;;
52322;SDS011;38263;52.920;6.238;2023-06-24T14:40:44;7.78;;;3.47;;
52322;SDS011;38263;52.920;6.238;2023-06-24T14:43:09;6.93;;;3.70;;
52322;SDS011;38263;52.920;6.238;2023-06-24T14:45:36;8.38;;;4.10;;
52322;SDS011;38263;52.920;6.238;2023-06-24T14:48:01;6.22;;;3.38;;
52322;SDS011;38263;52.920;6.238;2023-06-24T14:50:27;5.90;;;3.88;;
52322;SDS011;38263;52.920;6.238;2023-06-24T14:52:53;10.93;;;4.60;;
52322;SDS011;38263;52.920;6.238;2023-06-24T14:55:18;8.90;;;4.15;;
52322;SDS011;38263;52.920;6.238;2023-06-24T14:57:44;7.03;;;4.10;;
52322;SDS011;38263;52.920;6.238;2023-06-24T15:00:09;9.20;;;3.97;;
52322;SDS011;38263;52.920;6.238;2023-06-24T15:02:36;7.30;;;3.92;;
52322;SDS011;38263;52.920;6.238;2023-06-24T15:05:02;11.95;;;4.65;;